Latest Weather Observations for Warburto Point

IDS60801

Issued at 3:31 pm CST Wednesday 8 July 2015 (issued every 30 minutes, with the page automatically refreshed every 10 minutes)

About weather observations | Map of weather stations | Latest weather observations for SA | Other Formats
Station Details ID: 022053 Name: WARBURTO POINT Lat: -34.00 Lon: 137.53 Height: 1.0 m
Data from the previous 72 hours. | See also: Recent months for locations in South Australia
Date/Time
CST
Temp
°C
App
Temp
°C
Dew
Point
Rel
Hum
%
Delta-T
°C
Wind Press
QNH
hPa
Press
MSL
hPa
Rain
since 9 am
mm
Dir
 
Spd
km/h
Gust
km/h
Spd
kts
Gust
kts
08/03:30pm - - - - - N 13 15 7 8 - - -
08/03:00pm - - - - - N 13 15 7 8 - - -
08/02:30pm - - - - - N 13 17 7 9 - - -
08/02:00pm - - - - - N 15 17 8 9 - - -
08/01:30pm - - - - - N 15 19 8 10 - - -
08/01:00pm - - - - - N 17 19 9 10 - - -
08/12:30pm - - - - - N 19 24 10 13 - - -
08/12:00pm - - - - - N 17 22 9 12 - - -
08/11:30am - - - - - NNE 17 20 9 11 - - -
08/11:00am - - - - - NNE 13 17 7 9 - - -
08/10:30am - - - - - E 15 19 8 10 - - -
08/10:00am - - - - - E 15 20 8 11 - - -
08/09:30am - - - - - E 13 17 7 9 - - -
08/09:00am - - - - - ENE 9 13 5 7 - - -
08/08:30am - - - - - E 11 13 6 7 - - -
08/08:00am - - - - - E 15 17 8 9 - - -
08/07:30am - - - - - ENE 13 17 7 9 - - -
08/07:00am - - - - - ENE 13 15 7 8 - - -
08/06:30am - - - - - ENE 13 15 7 8 - - -
08/06:00am - - - - - NE 13 15 7 8 - - -
08/05:30am - - - - - NE 11 13 6 7 - - -
08/05:00am - - - - - ENE 13 15 7 8 - - -
08/04:30am - - - - - ENE 13 15 7 8 - - -
08/04:00am - - - - - ENE 15 17 8 9 - - -
08/03:30am - - - - - ENE 15 17 8 9 - - -
08/03:00am - - - - - NE 15 17 8 9 - - -
08/02:30am - - - - - NE 15 17 8 9 - - -
08/02:00am - - - - - NE 11 13 6 7 - - -
08/01:30am - - - - - NE 13 15 7 8 - - -
08/01:00am - - - - - ENE 13 13 7 7 - - -
08/12:30am - - - - - ENE 13 15 7 8 - - -
08/12:00am - - - - - NE 11 13 6 7 - - -
 
Date/Time
CST
Temp
°C
App
Temp
°C
Dew
Point
Rel
Hum
%
Delta-T
°C
Wind Press
QNH
hPa
Press
MSL
hPa
Rain
since 9 am
mm
Dir
 
Spd
km/h
Gust
km/h
Spd
kts
Gust
kts
07/11:30pm - - - - - NE 11 13 6 7 - - -
07/11:00pm - - - - - NE 13 13 7 7 - - -
07/10:30pm - - - - - NE 11 13 6 7 - - -
07/10:00pm - - - - - ENE 15 17 8 9 - - -
07/09:30pm - - - - - ENE 17 19 9 10 - - -
07/09:00pm - - - - - E 13 15 7 8 - - -
07/08:30pm - - - - - E 13 15 7 8 - - -
07/08:00pm - - - - - E 9 9 5 5 - - -
07/07:30pm - - - - - SSW 6 7 3 4 - - -
07/07:00pm - - - - - SW 9 13 5 7 - - -
07/06:30pm - - - - - SW 9 11 5 6 - - -
07/06:00pm - - - - - WSW 9 11 5 6 - - -
07/05:30pm - - - - - WSW 13 15 7 8 - - -
07/05:00pm - - - - - WSW 13 17 7 9 - - -
07/04:30pm - - - - - W 15 17 8 9 - - -
07/04:00pm - - - - - W 17 19 9 10 - - -
07/03:30pm - - - - - W 17 22 9 12 - - -
07/03:00pm - - - - - W 19 22 10 12 - - -
07/02:30pm - - - - - W 19 24 10 13 - - -
07/02:00pm - - - - - W 20 26 11 14 - - -
07/01:30pm - - - - - W 20 26 11 14 - - -
07/01:00pm - - - - - W 19 24 10 13 - - -
07/12:30pm - - - - - W 19 24 10 13 - - -
07/12:00pm - - - - - W 20 26 11 14 - - -
07/11:30am - - - - - W 20 28 11 15 - - -
07/11:00am - - - - - W 20 26 11 14 - - -
07/10:30am - - - - - W 20 26 11 14 - - -
07/10:00am - - - - - W 19 24 10 13 - - -
07/09:30am - - - - - WSW 17 24 9 13 - - -
07/09:00am - - - - - WSW 17 22 9 12 - - -
07/08:30am - - - - - W 17 24 9 13 - - -
07/08:00am - - - - - W 19 24 10 13 - - -
07/07:30am - - - - - W 22 28 12 15 - - -
07/07:00am - - - - - W 20 28 11 15 - - -
07/06:30am - - - - - W 20 28 11 15 - - -
07/06:00am - - - - - W 20 26 11 14 - - -
07/05:30am - - - - - W 22 28 12 15 - - -
07/05:00am - - - - - W 20 26 11 14 - - -
07/04:30am - - - - - W 26 33 14 18 - - -
07/04:00am - - - - - W 24 30 13 16 - - -
07/03:30am - - - - - WSW 20 28 11 15 - - -
07/03:00am - - - - - W 26 30 14 16 - - -
07/02:30am - - - - - W 20 28 11 15 - - -
07/02:00am - - - - - W 24 32 13 17 - - -
07/01:30am - - - - - W 22 30 12 16 - - -
07/01:00am - - - - - WSW 20 30 11 16 - - -
07/12:30am - - - - - WSW 20 26 11 14 - - -
07/12:00am - - - - - WSW 19 26 10 14 - - -
 
Date/Time
CST
Temp
°C
App
Temp
°C
Dew
Point
Rel
Hum
%
Delta-T
°C
Wind Press
QNH
hPa
Press
MSL
hPa
Rain
since 9 am
mm
Dir
 
Spd
km/h
Gust
km/h
Spd
kts
Gust
kts
06/11:30pm - - - - - W 22 28 12 15 - - -
06/11:00pm - - - - - W 19 28 10 15 - - -
06/10:30pm - - - - - WSW 19 26 10 14 - - -
06/10:00pm - - - - - WSW 19 26 10 14 - - -
06/09:30pm - - - - - WSW 19 26 10 14 - - -
06/09:00pm - - - - - WSW 15 20 8 11 - - -
06/08:30pm - - - - - WSW 15 19 8 10 - - -
06/08:00pm - - - - - WSW 17 20 9 11 - - -
06/07:30pm - - - - - WSW 13 17 7 9 - - -
06/07:00pm - - - - - W 11 15 6 8 - - -
06/06:30pm - - - - - W 9 11 5 6 - - -
06/06:00pm - - - - - WSW 11 11 6 6 - - -
06/05:30pm - - - - - W 15 19 8 10 - - -
06/05:00pm - - - - - W 17 20 9 11 - - -
06/04:30pm - - - - - WNW 20 26 11 14 - - -
06/04:00pm - - - - - WNW 22 28 12 15 - - -
06/03:30pm - - - - - WNW 20 28 11 15 - - -
06/03:00pm - - - - - WNW 24 30 13 16 - - -
06/02:30pm - - - - - WNW 26 32 14 17 - - -
06/02:00pm - - - - - W 24 30 13 16 - - -
06/01:30pm - - - - - W 24 28 13 15 - - -
06/01:00pm - - - - - W 24 35 13 19 - - -
06/12:30pm - - - - - W 26 33 14 18 - - -
06/12:00pm - - - - - WNW 28 35 15 19 - - -
06/11:30am - - - - - W 28 35 15 19 - - -
06/11:00am - - - - - W 32 41 17 22 - - -
06/10:30am - - - - - W 28 35 15 19 - - -
06/10:00am - - - - - W 24 32 13 17 - - -
06/09:30am - - - - - W 24 32 13 17 - - -
06/09:00am - - - - - WNW 24 30 13 16 - - -
06/08:30am - - - - - W 20 26 11 14 - - -
06/08:00am - - - - - W 17 22 9 12 - - -
06/07:30am - - - - - W 17 20 9 11 - - -
06/07:00am - - - - - W 20 28 11 15 - - -
06/06:30am - - - - - W 24 32 13 17 - - -
06/06:00am - - - - - WSW 28 33 15 18 - - -
06/05:30am - - - - - W 20 28 11 15 - - -
06/05:00am - - - - - WNW 20 28 11 15 - - -
06/04:30am - - - - - NW 19 22 10 12 - - -
06/04:00am - - - - - NW 19 24 10 13 - - -
06/03:30am - - - - - NNW 19 24 10 13 - - -
06/03:00am - - - - - NNW 24 32 13 17 - - -
06/02:30am - - - - - NNW 22 28 12 15 - - -
06/02:00am - - - - - N 28 35 15 19 - - -
06/01:30am - - - - - N 26 30 14 16 - - -
06/01:00am - - - - - N 33 41 18 22 - - -
06/12:30am - - - - - N 33 41 18 22 - - -
06/12:00am - - - - - N 28 33 15 18 - - -
 
Date/Time
CST
Temp
°C
App
Temp
°C
Dew
Point
Rel
Hum
%
Delta-T
°C
Wind Press
QNH
hPa
Press
MSL
hPa
Rain
since 9 am
mm
Dir
 
Spd
km/h
Gust
km/h
Spd
kts
Gust
kts
05/11:30pm - - - - - N 24 28 13 15 - - -
05/11:00pm - - - - - N 24 28 13 15 - - -
05/10:30pm - - - - - N 28 32 15 17 - - -
05/10:00pm - - - - - N 26 32 14 17 - - -
05/09:30pm - - - - - NNW 28 32 15 17 - - -
05/09:00pm - - - - - N 26 32 14 17 - - -
05/08:30pm - - - - - N 22 28 12 15 - - -
05/08:00pm - - - - - N 24 28 13 15 - - -
05/07:30pm - - - - - N 24 30 13 16 - - -
05/07:00pm - - - - - N 28 33 15 18 - - -
05/06:30pm - - - - - NNE 28 33 15 18 - - -
05/06:00pm - - - - - NNE 28 32 15 17 - - -
05/05:30pm - - - - - NNE 30 37 16 20 - - -
05/05:00pm - - - - - NNE 32 35 17 19 - - -
05/04:30pm - - - - - NNE 32 37 17 20 - - -
05/04:00pm - - - - - NNE 30 35 16 19 - - -

Other Formats:

Comma delimited format used in spreadsheet applications
http://www.bom.gov.au/fwo/IDS60801/IDS60801.94666.axf

JavaScript Object Notation format (JSON) in row-major order
http://www.bom.gov.au/fwo/IDS60801/IDS60801.94666.json